sensor_id;sensor_type;location;lat;lon;timestamp;P1;durP1;ratioP1;P2;durP2;ratioP2
24637;SDS011;12773;50.162;8.548;2023-05-27T00:00:28;10.25;;;2.65;;
24637;SDS011;12773;50.162;8.548;2023-05-27T00:03:17;18.55;;;2.83;;
24637;SDS011;12773;50.162;8.548;2023-05-27T00:06:05;19.98;;;3.33;;
24637;SDS011;12773;50.162;8.548;2023-05-27T00:08:53;14.55;;;3.12;;
24637;SDS011;12773;50.162;8.548;2023-05-27T00:11:40;13.13;;;2.47;;
24637;SDS011;12773;50.162;8.548;2023-05-27T00:14:28;13.18;;;2.75;;
24637;SDS011;12773;50.162;8.548;2023-05-27T00:17:15;13.48;;;2.65;;
24637;SDS011;12773;50.162;8.548;2023-05-27T00:20:03;17.57;;;2.80;;
24637;SDS011;12773;50.162;8.548;2023-05-27T00:22:52;12.85;;;2.30;;
24637;SDS011;12773;50.162;8.548;2023-05-27T00:25:40;13.35;;;2.90;;
24637;SDS011;12773;50.162;8.548;2023-05-27T00:28:28;12.58;;;3.35;;
24637;SDS011;12773;50.162;8.548;2023-05-27T00:31:17;17.25;;;2.50;;
24637;SDS011;12773;50.162;8.548;2023-05-27T00:34:04;13.98;;;2.52;;
24637;SDS011;12773;50.162;8.548;2023-05-27T00:36:51;14.40;;;2.92;;
24637;SDS011;12773;50.162;8.548;2023-05-27T00:39:39;15.45;;;2.95;;
24637;SDS011;12773;50.162;8.548;2023-05-27T00:42:26;10.30;;;2.25;;
24637;SDS011;12773;50.162;8.548;2023-05-27T00:45:14;11.18;;;2.95;;
24637;SDS011;12773;50.162;8.548;2023-05-27T00:48:01;12.18;;;2.92;;
24637;SDS011;12773;50.162;8.548;2023-05-27T00:50:49;16.00;;;2.67;;
24637;SDS011;12773;50.162;8.548;2023-05-27T00:53:39;13.93;;;2.83;;
24637;SDS011;12773;50.162;8.548;2023-05-27T00:56:26;14.43;;;3.17;;
24637;SDS011;12773;50.162;8.548;2023-05-27T00:59:14;11.28;;;3.00;;
24637;SDS011;12773;50.162;8.548;2023-05-27T01:02:01;15.65;;;2.85;;
24637;SDS011;12773;50.162;8.548;2023-05-27T01:04:49;14.38;;;2.98;;
24637;SDS011;12773;50.162;8.548;2023-05-27T01:10:44;16.30;;;3.35;;
24637;SDS011;12773;50.162;8.548;2023-05-27T01:13:40;11.08;;;2.90;;
24637;SDS011;12773;50.162;8.548;2023-05-27T01:16:30;11.70;;;2.72;;
24637;SDS011;12773;50.162;8.548;2023-05-27T01:19:27;15.55;;;2.77;;
24637;SDS011;12773;50.162;8.548;2023-05-27T01:22:17;9.10;;;2.75;;
24637;SDS011;12773;50.162;8.548;2023-05-27T01:25:06;16.15;;;3.05;;
24637;SDS011;12773;50.162;8.548;2023-05-27T01:27:54;14.20;;;2.95;;
24637;SDS011;12773;50.162;8.548;2023-05-27T01:30:42;10.95;;;2.52;;
24637;SDS011;12773;50.162;8.548;2023-05-27T01:33:29;13.88;;;3.60;;
24637;SDS011;12773;50.162;8.548;2023-05-27T01:36:20;15.72;;;3.30;;
24637;SDS011;12773;50.162;8.548;2023-05-27T01:39:11;13.53;;;3.08;;
24637;SDS011;12773;50.162;8.548;2023-05-27T01:41:59;13.25;;;3.22;;
24637;SDS011;12773;50.162;8.548;2023-05-27T01:44:48;12.75;;;2.70;;
24637;SDS011;12773;50.162;8.548;2023-05-27T01:47:36;17.52;;;3.42;;
24637;SDS011;12773;50.162;8.548;2023-05-27T01:50:23;15.45;;;3.08;;
24637;SDS011;12773;50.162;8.548;2023-05-27T01:53:11;12.98;;;3.22;;
24637;SDS011;12773;50.162;8.548;2023-05-27T01:55:59;14.33;;;2.45;;
24637;SDS011;12773;50.162;8.548;2023-05-27T01:58:47;12.47;;;2.70;;
24637;SDS011;12773;50.162;8.548;2023-05-27T02:01:35;11.88;;;2.45;;
24637;SDS011;12773;50.162;8.548;2023-05-27T02:04:22;11.53;;;2.95;;
24637;SDS011;12773;50.162;8.548;2023-05-27T02:07:10;10.15;;;2.87;;
24637;SDS011;12773;50.162;8.548;2023-05-27T02:09:57;14.50;;;3.10;;
24637;SDS011;12773;50.162;8.548;2023-05-27T02:12:45;7.17;;;2.72;;
24637;SDS011;12773;50.162;8.548;2023-05-27T02:15:34;12.78;;;3.00;;
24637;SDS011;12773;50.162;8.548;2023-05-27T02:18:21;12.85;;;2.85;;
24637;SDS011;12773;50.162;8.548;2023-05-27T02:21:08;8.40;;;2.50;;
24637;SDS011;12773;50.162;8.548;2023-05-27T02:23:56;13.43;;;2.87;;
24637;SDS011;12773;50.162;8.548;2023-05-27T02:26:44;13.60;;;2.90;;
24637;SDS011;12773;50.162;8.548;2023-05-27T02:29:31;12.93;;;2.90;;
24637;SDS011;12773;50.162;8.548;2023-05-27T02:32:21;11.43;;;2.50;;
24637;SDS011;12773;50.162;8.548;2023-05-27T02:35:09;14.15;;;3.00;;
24637;SDS011;12773;50.162;8.548;2023-05-27T02:37:58;16.77;;;3.02;;
24637;SDS011;12773;50.162;8.548;2023-05-27T02:40:48;16.45;;;2.90;;
24637;SDS011;12773;50.162;8.548;2023-05-27T02:43:35;13.60;;;3.17;;
24637;SDS011;12773;50.162;8.548;2023-05-27T02:46:23;16.52;;;3.20;;
24637;SDS011;12773;50.162;8.548;2023-05-27T02:49:10;16.30;;;3.12;;
24637;SDS011;12773;50.162;8.548;2023-05-27T02:51:58;11.88;;;2.87;;
24637;SDS011;12773;50.162;8.548;2023-05-27T02:54:45;15.65;;;3.00;;
24637;SDS011;12773;50.162;8.548;2023-05-27T02:57:32;11.48;;;2.80;;
24637;SDS011;12773;50.162;8.548;2023-05-27T03:00:20;12.55;;;2.77;;
24637;SDS011;12773;50.162;8.548;2023-05-27T03:03:08;13.60;;;3.00;;
24637;SDS011;12773;50.162;8.548;2023-05-27T03:05:55;12.43;;;2.95;;
24637;SDS011;12773;50.162;8.548;2023-05-27T03:08:43;13.50;;;2.65;;
24637;SDS011;12773;50.162;8.548;2023-05-27T03:11:31;19.57;;;3.02;;
24637;SDS011;12773;50.162;8.548;2023-05-27T03:14:19;11.22;;;2.75;;
24637;SDS011;12773;50.162;8.548;2023-05-27T03:17:06;9.38;;;2.80;;
24637;SDS011;12773;50.162;8.548;2023-05-27T03:19:54;16.10;;;3.10;;
24637;SDS011;12773;50.162;8.548;2023-05-27T03:22:41;14.33;;;3.25;;
24637;SDS011;12773;50.162;8.548;2023-05-27T03:25:29;16.23;;;2.85;;
24637;SDS011;12773;50.162;8.548;2023-05-27T03:28:18;10.48;;;2.55;;
24637;SDS011;12773;50.162;8.548;2023-05-27T03:31:05;11.73;;;2.72;;
24637;SDS011;12773;50.162;8.548;2023-05-27T03:33:54;12.58;;;2.55;;
24637;SDS011;12773;50.162;8.548;2023-05-27T03:36:41;16.37;;;2.92;;
24637;SDS011;12773;50.162;8.548;2023-05-27T03:39:30;15.83;;;3.33;;
24637;SDS011;12773;50.162;8.548;2023-05-27T03:42:18;17.92;;;3.10;;
24637;SDS011;12773;50.162;8.548;2023-05-27T03:45:06;11.22;;;2.77;;
24637;SDS011;12773;50.162;8.548;2023-05-27T03:47:54;17.35;;;3.27;;
24637;SDS011;12773;50.162;8.548;2023-05-27T03:50:42;14.98;;;2.83;;
24637;SDS011;12773;50.162;8.548;2023-05-27T03:53:29;13.05;;;3.30;;
24637;SDS011;12773;50.162;8.548;2023-05-27T03:56:17;16.37;;;3.35;;
24637;SDS011;12773;50.162;8.548;2023-05-27T03:59:04;20.02;;;3.20;;
24637;SDS011;12773;50.162;8.548;2023-05-27T04:01:54;17.70;;;3.87;;
24637;SDS011;12773;50.162;8.548;2023-05-27T04:04:42;11.40;;;2.67;;
24637;SDS011;12773;50.162;8.548;2023-05-27T04:07:29;11.70;;;3.00;;
24637;SDS011;12773;50.162;8.548;2023-05-27T04:10:17;14.68;;;3.40;;
24637;SDS011;12773;50.162;8.548;2023-05-27T04:13:05;13.03;;;3.35;;
24637;SDS011;12773;50.162;8.548;2023-05-27T04:15:53;11.38;;;2.80;;
24637;SDS011;12773;50.162;8.548;2023-05-27T04:18:45;12.70;;;3.12;;
24637;SDS011;12773;50.162;8.548;2023-05-27T04:21:34;9.63;;;2.60;;
24637;SDS011;12773;50.162;8.548;2023-05-27T04:24:22;12.78;;;3.37;;
24637;SDS011;12773;50.162;8.548;2023-05-27T04:27:10;16.37;;;3.40;;
24637;SDS011;12773;50.162;8.548;2023-05-27T04:29:58;15.38;;;2.75;;
24637;SDS011;12773;50.162;8.548;2023-05-27T04:32:46;15.72;;;3.58;;
24637;SDS011;12773;50.162;8.548;2023-05-27T04:35:34;10.23;;;2.50;;
24637;SDS011;12773;50.162;8.548;2023-05-27T04:38:21;13.78;;;2.80;;
24637;SDS011;12773;50.162;8.548;2023-05-27T04:41:09;13.03;;;2.98;;
24637;SDS011;12773;50.162;8.548;2023-05-27T04:43:56;14.15;;;3.22;;
24637;SDS011;12773;50.162;8.548;2023-05-27T04:46:46;13.88;;;3.35;;
24637;SDS011;12773;50.162;8.548;2023-05-27T04:49:33;13.68;;;3.40;;
24637;SDS011;12773;50.162;8.548;2023-05-27T04:52:21;15.60;;;3.77;;
24637;SDS011;12773;50.162;8.548;2023-05-27T04:55:09;16.50;;;3.10;;
24637;SDS011;12773;50.162;8.548;2023-05-27T04:58:02;9.95;;;2.77;;
24637;SDS011;12773;50.162;8.548;2023-05-27T05:00:48;12.35;;;2.92;;
24637;SDS011;12773;50.162;8.548;2023-05-27T05:03:37;14.00;;;3.10;;
24637;SDS011;12773;50.162;8.548;2023-05-27T05:06:26;9.88;;;2.47;;
24637;SDS011;12773;50.162;8.548;2023-05-27T05:09:15;12.90;;;3.92;;
24637;SDS011;12773;50.162;8.548;2023-05-27T05:12:03;16.00;;;2.83;;
24637;SDS011;12773;50.162;8.548;2023-05-27T05:14:51;15.05;;;3.25;;
24637;SDS011;12773;50.162;8.548;2023-05-27T05:17:39;11.60;;;2.92;;
24637;SDS011;12773;50.162;8.548;2023-05-27T05:20:32;13.40;;;2.62;;
24637;SDS011;12773;50.162;8.548;2023-05-27T05:23:16;13.55;;;3.17;;
24637;SDS011;12773;50.162;8.548;2023-05-27T05:26:03;16.27;;;3.08;;
24637;SDS011;12773;50.162;8.548;2023-05-27T05:28:52;13.22;;;3.17;;
24637;SDS011;12773;50.162;8.548;2023-05-27T05:31:39;18.37;;;3.60;;
24637;SDS011;12773;50.162;8.548;2023-05-27T05:34:30;14.50;;;3.27;;
24637;SDS011;12773;50.162;8.548;2023-05-27T05:37:18;13.48;;;3.08;;
24637;SDS011;12773;50.162;8.548;2023-05-27T05:40:05;16.50;;;3.20;;
24637;SDS011;12773;50.162;8.548;2023-05-27T05:42:56;16.40;;;2.95;;
24637;SDS011;12773;50.162;8.548;2023-05-27T05:45:44;11.83;;;3.08;;
24637;SDS011;12773;50.162;8.548;2023-05-27T05:48:32;15.25;;;3.05;;
24637;SDS011;12773;50.162;8.548;2023-05-27T05:51:19;12.70;;;3.12;;
24637;SDS011;12773;50.162;8.548;2023-05-27T05:54:07;15.55;;;3.25;;
24637;SDS011;12773;50.162;8.548;2023-05-27T05:56:54;18.10;;;3.55;;
24637;SDS011;12773;50.162;8.548;2023-05-27T05:59:42;15.55;;;3.95;;
24637;SDS011;12773;50.162;8.548;2023-05-27T06:02:29;14.15;;;3.35;;
24637;SDS011;12773;50.162;8.548;2023-05-27T06:05:17;11.78;;;3.12;;
24637;SDS011;12773;50.162;8.548;2023-05-27T06:08:05;11.10;;;2.60;;
24637;SDS011;12773;50.162;8.548;2023-05-27T06:10:54;15.88;;;2.98;;
24637;SDS011;12773;50.162;8.548;2023-05-27T06:13:41;12.25;;;2.92;;
24637;SDS011;12773;50.162;8.548;2023-05-27T06:16:29;17.15;;;3.30;;
24637;SDS011;12773;50.162;8.548;2023-05-27T06:19:17;13.15;;;3.05;;
24637;SDS011;12773;50.162;8.548;2023-05-27T06:22:04;15.23;;;3.40;;
24637;SDS011;12773;50.162;8.548;2023-05-27T06:24:51;11.00;;;3.00;;
24637;SDS011;12773;50.162;8.548;2023-05-27T06:27:39;12.03;;;2.90;;
24637;SDS011;12773;50.162;8.548;2023-05-27T06:30:26;11.80;;;3.10;;
24637;SDS011;12773;50.162;8.548;2023-05-27T06:33:17;16.87;;;3.20;;
24637;SDS011;12773;50.162;8.548;2023-05-27T06:36:04;14.70;;;3.17;;
24637;SDS011;12773;50.162;8.548;2023-05-27T06:38:52;12.25;;;2.95;;
24637;SDS011;12773;50.162;8.548;2023-05-27T06:41:40;16.52;;;3.02;;
24637;SDS011;12773;50.162;8.548;2023-05-27T06:44:28;12.95;;;2.95;;
24637;SDS011;12773;50.162;8.548;2023-05-27T06:47:15;13.15;;;2.90;;
24637;SDS011;12773;50.162;8.548;2023-05-27T06:50:03;11.10;;;3.00;;
24637;SDS011;12773;50.162;8.548;2023-05-27T06:52:51;14.75;;;3.35;;
24637;SDS011;12773;50.162;8.548;2023-05-27T06:55:39;15.32;;;3.08;;
24637;SDS011;12773;50.162;8.548;2023-05-27T06:58:26;16.50;;;3.62;;
24637;SDS011;12773;50.162;8.548;2023-05-27T07:01:19;13.85;;;3.15;;
24637;SDS011;12773;50.162;8.548;2023-05-27T07:04:07;16.65;;;2.98;;
24637;SDS011;12773;50.162;8.548;2023-05-27T07:06:55;15.85;;;3.35;;
24637;SDS011;12773;50.162;8.548;2023-05-27T07:09:42;13.85;;;3.33;;
24637;SDS011;12773;50.162;8.548;2023-05-27T07:12:31;11.48;;;3.17;;
24637;SDS011;12773;50.162;8.548;2023-05-27T07:15:18;15.88;;;3.10;;
24637;SDS011;12773;50.162;8.548;2023-05-27T07:18:06;16.82;;;3.50;;
24637;SDS011;12773;50.162;8.548;2023-05-27T07:20:54;16.10;;;2.98;;
24637;SDS011;12773;50.162;8.548;2023-05-27T07:23:42;9.75;;;2.67;;
24637;SDS011;12773;50.162;8.548;2023-05-27T07:26:30;16.20;;;3.45;;
24637;SDS011;12773;50.162;8.548;2023-05-27T07:29:18;12.15;;;2.70;;
24637;SDS011;12773;50.162;8.548;2023-05-27T07:32:06;13.15;;;3.62;;
24637;SDS011;12773;50.162;8.548;2023-05-27T07:34:55;15.23;;;3.45;;
24637;SDS011;12773;50.162;8.548;2023-05-27T07:37:44;10.85;;;3.17;;
24637;SDS011;12773;50.162;8.548;2023-05-27T07:40:32;14.83;;;3.08;;
24637;SDS011;12773;50.162;8.548;2023-05-27T07:43:19;16.45;;;3.55;;
24637;SDS011;12773;50.162;8.548;2023-05-27T07:46:07;12.18;;;3.50;;
24637;SDS011;12773;50.162;8.548;2023-05-27T07:48:54;15.13;;;3.27;;
24637;SDS011;12773;50.162;8.548;2023-05-27T07:51:44;12.33;;;2.60;;
24637;SDS011;12773;50.162;8.548;2023-05-27T07:54:32;14.83;;;2.98;;
24637;SDS011;12773;50.162;8.548;2023-05-27T07:57:23;14.90;;;3.50;;
24637;SDS011;12773;50.162;8.548;2023-05-27T08:00:11;16.87;;;3.20;;
24637;SDS011;12773;50.162;8.548;2023-05-27T08:02:59;13.18;;;3.15;;
24637;SDS011;12773;50.162;8.548;2023-05-27T08:05:47;12.75;;;2.92;;
24637;SDS011;12773;50.162;8.548;2023-05-27T08:08:34;9.73;;;2.67;;
24637;SDS011;12773;50.162;8.548;2023-05-27T08:11:22;10.53;;;2.95;;
24637;SDS011;12773;50.162;8.548;2023-05-27T08:14:09;13.60;;;4.05;;
24637;SDS011;12773;50.162;8.548;2023-05-27T08:16:59;12.93;;;3.02;;
24637;SDS011;12773;50.162;8.548;2023-05-27T08:19:46;11.68;;;3.17;;
24637;SDS011;12773;50.162;8.548;2023-05-27T08:22:34;13.38;;;3.17;;
24637;SDS011;12773;50.162;8.548;2023-05-27T08:25:22;13.00;;;3.10;;
24637;SDS011;12773;50.162;8.548;2023-05-27T08:28:09;12.98;;;3.12;;
24637;SDS011;12773;50.162;8.548;2023-05-27T08:30:56;12.93;;;3.65;;
24637;SDS011;12773;50.162;8.548;2023-05-27T08:33:46;14.68;;;3.58;;
24637;SDS011;12773;50.162;8.548;2023-05-27T08:36:34;13.28;;;3.17;;
24637;SDS011;12773;50.162;8.548;2023-05-27T08:39:21;12.85;;;3.50;;
24637;SDS011;12773;50.162;8.548;2023-05-27T08:42:09;12.55;;;3.55;;
24637;SDS011;12773;50.162;8.548;2023-05-27T08:44:56;12.40;;;2.87;;
24637;SDS011;12773;50.162;8.548;2023-05-27T08:47:45;12.80;;;3.10;;
24637;SDS011;12773;50.162;8.548;2023-05-27T08:50:34;16.17;;;3.40;;
24637;SDS011;12773;50.162;8.548;2023-05-27T08:53:22;10.50;;;3.00;;
24637;SDS011;12773;50.162;8.548;2023-05-27T08:56:11;10.53;;;3.22;;
24637;SDS011;12773;50.162;8.548;2023-05-27T08:59:00;11.43;;;3.72;;
24637;SDS011;12773;50.162;8.548;2023-05-27T09:01:48;10.93;;;2.85;;
24637;SDS011;12773;50.162;8.548;2023-05-27T09:04:36;14.18;;;3.62;;
24637;SDS011;12773;50.162;8.548;2023-05-27T09:07:25;11.22;;;3.58;;
24637;SDS011;12773;50.162;8.548;2023-05-27T09:10:14;13.50;;;3.45;;
24637;SDS011;12773;50.162;8.548;2023-05-27T09:13:02;13.38;;;3.42;;
24637;SDS011;12773;50.162;8.548;2023-05-27T09:15:49;12.28;;;3.52;;
24637;SDS011;12773;50.162;8.548;2023-05-27T09:18:39;15.55;;;3.17;;
24637;SDS011;12773;50.162;8.548;2023-05-27T09:21:28;13.80;;;3.80;;
24637;SDS011;12773;50.162;8.548;2023-05-27T09:24:16;12.40;;;3.15;;
24637;SDS011;12773;50.162;8.548;2023-05-27T09:27:04;13.13;;;3.50;;
24637;SDS011;12773;50.162;8.548;2023-05-27T09:29:51;10.68;;;3.17;;
24637;SDS011;12773;50.162;8.548;2023-05-27T09:32:39;15.23;;;3.20;;
24637;SDS011;12773;50.162;8.548;2023-05-27T09:35:30;11.35;;;3.15;;
24637;SDS011;12773;50.162;8.548;2023-05-27T09:38:17;14.33;;;2.92;;
24637;SDS011;12773;50.162;8.548;2023-05-27T09:41:05;14.63;;;3.50;;
24637;SDS011;12773;50.162;8.548;2023-05-27T09:43:53;12.28;;;3.33;;
24637;SDS011;12773;50.162;8.548;2023-05-27T09:46:41;15.60;;;3.75;;
24637;SDS011;12773;50.162;8.548;2023-05-27T09:49:32;14.50;;;3.80;;
24637;SDS011;12773;50.162;8.548;2023-05-27T09:52:22;8.78;;;3.00;;
24637;SDS011;12773;50.162;8.548;2023-05-27T09:55:11;14.53;;;3.35;;
24637;SDS011;12773;50.162;8.548;2023-05-27T09:58:00;9.03;;;3.10;;
24637;SDS011;12773;50.162;8.548;2023-05-27T10:00:48;11.65;;;3.27;;
24637;SDS011;12773;50.162;8.548;2023-05-27T10:03:37;12.85;;;3.30;;
24637;SDS011;12773;50.162;8.548;2023-05-27T10:06:26;14.47;;;3.70;;
24637;SDS011;12773;50.162;8.548;2023-05-27T10:09:15;11.63;;;3.08;;
24637;SDS011;12773;50.162;8.548;2023-05-27T10:12:03;9.95;;;3.25;;
24637;SDS011;12773;50.162;8.548;2023-05-27T10:14:52;10.10;;;3.30;;
24637;SDS011;12773;50.162;8.548;2023-05-27T10:17:53;14.53;;;3.55;;
24637;SDS011;12773;50.162;8.548;2023-05-27T10:20:42;13.15;;;3.65;;
24637;SDS011;12773;50.162;8.548;2023-05-27T10:23:32;13.03;;;3.20;;
24637;SDS011;12773;50.162;8.548;2023-05-27T10:26:20;11.88;;;3.22;;
24637;SDS011;12773;50.162;8.548;2023-05-27T10:29:11;11.38;;;2.95;;
24637;SDS011;12773;50.162;8.548;2023-05-27T10:32:01;14.70;;;3.30;;
24637;SDS011;12773;50.162;8.548;2023-05-27T10:34:49;12.13;;;3.35;;
24637;SDS011;12773;50.162;8.548;2023-05-27T10:37:38;13.58;;;3.08;;
24637;SDS011;12773;50.162;8.548;2023-05-27T10:40:28;14.98;;;3.70;;
24637;SDS011;12773;50.162;8.548;2023-05-27T10:43:18;10.93;;;3.10;;
24637;SDS011;12773;50.162;8.548;2023-05-27T10:46:09;9.98;;;3.72;;
24637;SDS011;12773;50.162;8.548;2023-05-27T10:49:08;13.95;;;3.92;;
24637;SDS011;12773;50.162;8.548;2023-05-27T10:51:49;10.72;;;3.12;;
24637;SDS011;12773;50.162;8.548;2023-05-27T10:54:37;11.70;;;3.58;;
24637;SDS011;12773;50.162;8.548;2023-05-27T10:57:25;14.38;;;3.25;;
24637;SDS011;12773;50.162;8.548;2023-05-27T11:00:17;14.63;;;3.40;;
24637;SDS011;12773;50.162;8.548;2023-05-27T11:03:15;11.40;;;3.10;;
24637;SDS011;12773;50.162;8.548;2023-05-27T11:06:15;9.58;;;3.65;;
24637;SDS011;12773;50.162;8.548;2023-05-27T11:09:03;14.43;;;3.20;;
24637;SDS011;12773;50.162;8.548;2023-05-27T11:11:50;12.35;;;3.52;;
24637;SDS011;12773;50.162;8.548;2023-05-27T11:14:38;12.10;;;3.37;;
24637;SDS011;12773;50.162;8.548;2023-05-27T11:17:26;17.67;;;3.35;;
24637;SDS011;12773;50.162;8.548;2023-05-27T11:20:14;13.22;;;3.15;;
24637;SDS011;12773;50.162;8.548;2023-05-27T11:23:02;14.53;;;3.15;;
24637;SDS011;12773;50.162;8.548;2023-05-27T11:25:50;12.20;;;2.80;;
24637;SDS011;12773;50.162;8.548;2023-05-27T11:28:38;8.53;;;2.72;;
24637;SDS011;12773;50.162;8.548;2023-05-27T11:31:28;11.38;;;3.55;;
24637;SDS011;12773;50.162;8.548;2023-05-27T11:34:17;13.08;;;3.50;;
24637;SDS011;12773;50.162;8.548;2023-05-27T11:37:05;10.80;;;2.90;;
24637;SDS011;12773;50.162;8.548;2023-05-27T11:39:53;12.33;;;3.10;;
24637;SDS011;12773;50.162;8.548;2023-05-27T11:42:49;10.03;;;3.75;;
24637;SDS011;12773;50.162;8.548;2023-05-27T11:45:34;10.72;;;3.20;;
24637;SDS011;12773;50.162;8.548;2023-05-27T11:48:23;12.28;;;3.15;;
24637;SDS011;12773;50.162;8.548;2023-05-27T11:51:10;10.72;;;3.12;;
24637;SDS011;12773;50.162;8.548;2023-05-27T11:54:00;10.15;;;3.02;;
24637;SDS011;12773;50.162;8.548;2023-05-27T11:56:48;9.95;;;3.17;;
24637;SDS011;12773;50.162;8.548;2023-05-27T11:59:37;11.33;;;2.70;;
24637;SDS011;12773;50.162;8.548;2023-05-27T12:02:25;9.75;;;2.98;;
24637;SDS011;12773;50.162;8.548;2023-05-27T12:05:14;8.35;;;3.37;;
24637;SDS011;12773;50.162;8.548;2023-05-27T12:08:03;11.63;;;3.00;;
24637;SDS011;12773;50.162;8.548;2023-05-27T12:10:51;8.95;;;2.98;;
24637;SDS011;12773;50.162;8.548;2023-05-27T12:13:39;11.38;;;3.37;;
24637;SDS011;12773;50.162;8.548;2023-05-27T12:16:33;11.53;;;3.42;;
24637;SDS011;12773;50.162;8.548;2023-05-27T12:19:16;10.48;;;3.20;;
24637;SDS011;12773;50.162;8.548;2023-05-27T12:22:05;10.03;;;3.08;;
24637;SDS011;12773;50.162;8.548;2023-05-27T12:24:56;10.23;;;3.30;;
24637;SDS011;12773;50.162;8.548;2023-05-27T12:27:41;7.83;;;2.85;;
24637;SDS011;12773;50.162;8.548;2023-05-27T12:30:30;11.73;;;3.05;;
24637;SDS011;12773;50.162;8.548;2023-05-27T12:33:17;9.25;;;3.17;;
24637;SDS011;12773;50.162;8.548;2023-05-27T12:36:05;11.35;;;3.37;;
24637;SDS011;12773;50.162;8.548;2023-05-27T12:38:53;9.23;;;2.98;;
24637;SDS011;12773;50.162;8.548;2023-05-27T12:41:40;9.83;;;3.22;;
24637;SDS011;12773;50.162;8.548;2023-05-27T12:44:28;10.32;;;2.90;;
24637;SDS011;12773;50.162;8.548;2023-05-27T12:47:16;8.73;;;2.80;;
24637;SDS011;12773;50.162;8.548;2023-05-27T12:50:03;8.50;;;3.20;;
24637;SDS011;12773;50.162;8.548;2023-05-27T12:52:51;8.05;;;2.75;;
24637;SDS011;12773;50.162;8.548;2023-05-27T12:55:39;10.15;;;3.00;;
24637;SDS011;12773;50.162;8.548;2023-05-27T12:58:26;6.70;;;3.00;;
24637;SDS011;12773;50.162;8.548;2023-05-27T13:01:16;8.68;;;2.95;;
24637;SDS011;12773;50.162;8.548;2023-05-27T13:04:04;11.25;;;3.12;;
24637;SDS011;12773;50.162;8.548;2023-05-27T13:06:51;11.60;;;3.00;;
24637;SDS011;12773;50.162;8.548;2023-05-27T13:09:43;8.03;;;2.60;;
24637;SDS011;12773;50.162;8.548;2023-05-27T13:12:31;7.75;;;2.83;;
24637;SDS011;12773;50.162;8.548;2023-05-27T13:15:20;10.85;;;2.98;;
24637;SDS011;12773;50.162;8.548;2023-05-27T13:18:09;9.40;;;3.33;;
24637;SDS011;12773;50.162;8.548;2023-05-27T13:21:00;8.30;;;2.72;;
24637;SDS011;12773;50.162;8.548;2023-05-27T13:23:48;6.58;;;2.87;;
24637;SDS011;12773;50.162;8.548;2023-05-27T13:26:38;6.35;;;2.70;;
24637;SDS011;12773;50.162;8.548;2023-05-27T13:29:26;8.38;;;2.98;;
24637;SDS011;12773;50.162;8.548;2023-05-27T13:32:16;8.35;;;2.98;;
24637;SDS011;12773;50.162;8.548;2023-05-27T13:35:04;10.25;;;2.67;;
24637;SDS011;12773;50.162;8.548;2023-05-27T13:37:51;11.33;;;3.10;;
24637;SDS011;12773;50.162;8.548;2023-05-27T13:40:39;9.23;;;2.87;;
24637;SDS011;12773;50.162;8.548;2023-05-27T13:43:30;8.43;;;2.92;;
24637;SDS011;12773;50.162;8.548;2023-05-27T13:46:18;6.37;;;2.62;;
24637;SDS011;12773;50.162;8.548;2023-05-27T13:49:05;10.25;;;3.25;;
24637;SDS011;12773;50.162;8.548;2023-05-27T13:51:53;6.25;;;2.70;;
24637;SDS011;12773;50.162;8.548;2023-05-27T13:54:41;10.88;;;3.17;;
24637;SDS011;12773;50.162;8.548;2023-05-27T13:57:28;8.43;;;2.77;;
24637;SDS011;12773;50.162;8.548;2023-05-27T14:00:16;8.85;;;3.30;;
24637;SDS011;12773;50.162;8.548;2023-05-27T14:03:03;8.35;;;3.10;;
24637;SDS011;12773;50.162;8.548;2023-05-27T14:05:50;9.05;;;3.27;;
24637;SDS011;12773;50.162;8.548;2023-05-27T14:08:38;7.12;;;2.60;;
24637;SDS011;12773;50.162;8.548;2023-05-27T14:11:26;7.50;;;2.70;;
24637;SDS011;12773;50.162;8.548;2023-05-27T14:14:13;8.03;;;3.35;;
24637;SDS011;12773;50.162;8.548;2023-05-27T14:17:00;9.45;;;2.83;;
24637;SDS011;12773;50.162;8.548;2023-05-27T14:19:48;5.35;;;2.60;;
24637;SDS011;12773;50.162;8.548;2023-05-27T14:22:36;5.78;;;2.50;;
24637;SDS011;12773;50.162;8.548;2023-05-27T14:25:24;6.45;;;2.83;;
24637;SDS011;12773;50.162;8.548;2023-05-27T14:28:13;6.90;;;3.12;;
24637;SDS011;12773;50.162;8.548;2023-05-27T14:31:00;8.20;;;2.90;;
24637;SDS011;12773;50.162;8.548;2023-05-27T14:33:48;7.85;;;2.60;;
24637;SDS011;12773;50.162;8.548;2023-05-27T14:36:35;7.30;;;3.10;;
24637;SDS011;12773;50.162;8.548;2023-05-27T14:39:22;9.75;;;3.02;;
24637;SDS011;12773;50.162;8.548;2023-05-27T14:42:10;7.85;;;3.15;;
24637;SDS011;12773;50.162;8.548;2023-05-27T14:44:57;7.70;;;2.83;;
24637;SDS011;12773;50.162;8.548;2023-05-27T14:47:45;8.23;;;3.30;;
24637;SDS011;12773;50.162;8.548;2023-05-27T14:50:33;14.75;;;3.80;;
24637;SDS011;12773;50.162;8.548;2023-05-27T14:53:21;6.42;;;2.55;;
24637;SDS011;12773;50.162;8.548;2023-05-27T14:56:08;5.95;;;2.98;;
24637;SDS011;12773;50.162;8.548;2023-05-27T14:58:57;6.90;;;2.70;;
24637;SDS011;12773;50.162;8.548;2023-05-27T15:01:44;6.42;;;2.80;;
24637;SDS011;12773;50.162;8.548;2023-05-27T15:04:32;7.90;;;3.20;;
24637;SDS011;12773;50.162;8.548;2023-05-27T15:07:20;8.43;;;2.67;;
24637;SDS011;12773;50.162;8.548;2023-05-27T15:10:09;7.50;;;3.22;;
24637;SDS011;12773;50.162;8.548;2023-05-27T15:12:57;7.22;;;2.80;;
24637;SDS011;12773;50.162;8.548;2023-05-27T15:15:45;9.43;;;2.83;;
24637;SDS011;12773;50.162;8.548;2023-05-27T15:18:33;7.00;;;3.00;;
24637;SDS011;12773;50.162;8.548;2023-05-27T15:21:20;6.28;;;2.50;;
24637;SDS011;12773;50.162;8.548;2023-05-27T15:24:07;7.75;;;2.85;;
24637;SDS011;12773;50.162;8.548;2023-05-27T15:26:55;9.10;;;2.80;;
24637;SDS011;12773;50.162;8.548;2023-05-27T15:29:44;8.93;;;2.87;;
24637;SDS011;12773;50.162;8.548;2023-05-27T15:32:31;9.13;;;3.55;;
24637;SDS011;12773;50.162;8.548;2023-05-27T15:35:19;6.33;;;2.47;;
24637;SDS011;12773;50.162;8.548;2023-05-27T15:38:07;5.90;;;2.85;;
24637;SDS011;12773;50.162;8.548;2023-05-27T15:40:55;8.15;;;2.70;;
24637;SDS011;12773;50.162;8.548;2023-05-27T15:43:43;5.75;;;3.22;;
24637;SDS011;12773;50.162;8.548;2023-05-27T15:46:31;6.62;;;3.00;;
24637;SDS011;12773;50.162;8.548;2023-05-27T15:49:18;6.85;;;2.95;;
24637;SDS011;12773;50.162;8.548;2023-05-27T15:52:06;6.05;;;2.62;;
24637;SDS011;12773;50.162;8.548;2023-05-27T15:55:01;6.65;;;2.60;;
24637;SDS011;12773;50.162;8.548;2023-05-27T15:57:48;7.65;;;2.52;;
24637;SDS011;12773;50.162;8.548;2023-05-27T16:00:36;7.85;;;2.70;;
24637;SDS011;12773;50.162;8.548;2023-05-27T16:03:23;7.90;;;2.80;;
24637;SDS011;12773;50.162;8.548;2023-05-27T16:06:10;8.93;;;2.80;;
24637;SDS011;12773;50.162;8.548;2023-05-27T16:08:58;7.05;;;3.17;;
24637;SDS011;12773;50.162;8.548;2023-05-27T16:11:45;7.90;;;2.72;;
24637;SDS011;12773;50.162;8.548;2023-05-27T16:14:33;6.85;;;2.60;;
24637;SDS011;12773;50.162;8.548;2023-05-27T16:17:20;10.10;;;3.05;;
24637;SDS011;12773;50.162;8.548;2023-05-27T16:20:10;7.85;;;3.00;;
24637;SDS011;12773;50.162;8.548;2023-05-27T16:22:58;8.03;;;2.62;;
24637;SDS011;12773;50.162;8.548;2023-05-27T16:25:46;5.87;;;2.70;;
24637;SDS011;12773;50.162;8.548;2023-05-27T16:28:34;8.80;;;2.95;;
24637;SDS011;12773;50.162;8.548;2023-05-27T16:31:22;8.50;;;2.95;;
24637;SDS011;12773;50.162;8.548;2023-05-27T16:34:09;8.38;;;2.62;;
24637;SDS011;12773;50.162;8.548;2023-05-27T16:36:56;7.95;;;2.80;;
24637;SDS011;12773;50.162;8.548;2023-05-27T16:39:44;6.83;;;2.75;;
24637;SDS011;12773;50.162;8.548;2023-05-27T16:42:32;7.00;;;2.47;;
24637;SDS011;12773;50.162;8.548;2023-05-27T16:45:21;6.25;;;2.90;;